Terminal Aerodrome Forecast
Issued by NWS

Home | Current Version | Previous Version | Text Only | Print | Product List | Glossary On
Versions: 1 2 3 4 5 6 7 8 9 10 11 12 13 14 15 16 17 18 19 20 21 22 23 24 25 26 27 28 29 30 31
000
FTUS45 KBOU 182215 AAA
TAFAPA
TAF AMD
KAPA 182215Z 1822/1918 02007KT P6SM FEW120 BKN220
     FM190100 15014KT P6SM SCT120 BKN200
     FM191000 19007KT P6SM SCT120 BKN200
     FM191400 16008KT P6SM FEW140 SCT220
     FM191700 07011KT P6SM FEW100 SCT150=

USA.gov is the U.S. government's official web portal to all federal, state and local government web resources and services.